createdAt,value
2022-08-26T00:00:20.730Z,25.64
2022-08-26T00:01:29.173Z,25.77
2022-08-26T00:02:20.823Z,25.88
2022-08-26T00:03:20.699Z,25.83
2022-08-26T00:04:20.737Z,25.77
2022-08-26T00:05:20.679Z,25.83
2022-08-26T00:06:20.812Z,25.82
2022-08-26T00:07:20.659Z,25.85
2022-08-26T00:08:20.642Z,25.74
2022-08-26T00:09:20.634Z,25.71
2022-08-26T00:10:20.622Z,25.71
2022-08-26T00:11:26.778Z,25.66
2022-08-26T00:12:20.600Z,25.70
2022-08-26T00:13:20.588Z,25.67
2022-08-26T00:14:20.574Z,25.63
2022-08-26T00:15:20.565Z,25.66
2022-08-26T00:16:20.624Z,25.66
2022-08-26T00:17:20.543Z,25.64
2022-08-26T00:18:22.387Z,25.64
2022-08-26T00:19:20.518Z,25.61
2022-08-26T00:20:20.511Z,25.63
2022-08-26T00:21:20.491Z,25.64
2022-08-26T00:22:21.592Z,25.59
2022-08-26T00:23:20.472Z,25.61
2022-08-26T00:24:20.468Z,25.49
2022-08-26T00:25:20.448Z,25.63
2022-08-26T00:26:20.442Z,25.63
2022-08-26T00:27:20.425Z,25.56
2022-08-26T00:28:20.411Z,25.55
2022-08-26T00:29:21.373Z,25.53
2022-08-26T00:30:21.393Z,25.55
2022-08-26T00:31:20.406Z,25.55
2022-08-26T00:32:20.373Z,25.49
2022-08-26T00:33:20.360Z,25.46
2022-08-26T00:34:20.347Z,25.30
2022-08-26T00:35:20.335Z,25.30
2022-08-26T00:36:20.669Z,25.27
2022-08-26T00:37:20.310Z,25.30
2022-08-26T00:38:20.302Z,25.36
2022-08-26T00:39:20.360Z,25.34
2022-08-26T00:40:20.302Z,25.33
2022-08-26T00:41:20.267Z,25.34
2022-08-26T00:42:20.256Z,25.34
2022-08-26T00:43:20.241Z,25.33
2022-08-26T00:44:20.234Z,25.36
2022-08-26T00:45:20.219Z,25.33
2022-08-26T00:46:20.212Z,25.30
2022-08-26T00:47:20.193Z,25.26
2022-08-26T00:48:20.188Z,25.27
2022-08-26T00:49:20.173Z,25.27
2022-08-26T00:50:20.161Z,25.28
2022-08-26T00:51:20.149Z,25.26
2022-08-26T00:52:20.141Z,25.30
2022-08-26T00:53:20.127Z,25.23
2022-08-26T00:54:20.117Z,25.15
2022-08-26T00:55:20.537Z,25.21
2022-08-26T00:56:20.095Z,25.15
2022-08-26T00:57:20.078Z,25.18
2022-08-26T00:58:20.069Z,25.18
2022-08-26T00:59:20.056Z,25.18
2022-08-26T01:00:20.044Z,25.19
2022-08-26T01:01:23.030Z,25.16
2022-08-26T01:02:21.461Z,25.19
2022-08-26T01:03:20.014Z,25.21
2022-08-26T01:04:20.002Z,25.23
2022-08-26T01:05:19.990Z,25.19
2022-08-26T01:06:19.980Z,25.22
2022-08-26T01:07:19.965Z,25.18
2022-08-26T01:08:19.954Z,25.22
2022-08-26T01:09:19.937Z,25.18
2022-08-26T01:10:19.932Z,25.23
2022-08-26T01:11:19.913Z,25.23
2022-08-26T01:12:22.128Z,25.23
2022-08-26T01:13:20.159Z,25.19
2022-08-26T01:14:20.221Z,25.18
2022-08-26T01:15:19.871Z,25.15
2022-08-26T01:16:19.902Z,25.16
2022-08-26T01:17:19.850Z,25.09
2022-08-26T01:18:19.835Z,25.12
2022-08-26T01:19:19.825Z,25.15
2022-08-26T01:20:19.806Z,25.16
2022-08-26T01:21:19.797Z,25.09
2022-08-26T01:22:19.787Z,25.09
2022-08-26T01:23:19.773Z,25.04
2022-08-26T01:24:19.760Z,25.08
2022-08-26T01:25:19.754Z,25.04
2022-08-26T01:26:20.187Z,25.15
2022-08-26T01:27:19.732Z,25.09
2022-08-26T01:28:19.717Z,24.94
2022-08-26T01:29:20.224Z,25.01
2022-08-26T01:30:19.693Z,24.96
2022-08-26T01:31:19.797Z,24.93
2022-08-26T01:32:19.666Z,24.90
2022-08-26T01:33:19.660Z,24.89
2022-08-26T01:34:19.715Z,24.76
2022-08-26T01:35:19.637Z,24.82
2022-08-26T01:36:19.625Z,24.84
2022-08-26T01:37:19.607Z,24.82
2022-08-26T01:38:19.599Z,24.84
2022-08-26T01:39:19.585Z,24.85
2022-08-26T01:40:19.610Z,24.81
2022-08-26T01:41:20.261Z,24.74
2022-08-26T01:42:19.547Z,24.65
2022-08-26T01:43:19.536Z,24.81
2022-08-26T01:44:19.527Z,24.75
2022-08-26T01:45:19.509Z,24.70
2022-08-26T01:46:19.498Z,24.47
2022-08-26T01:47:19.489Z,24.43
2022-08-26T01:48:19.478Z,24.45
2022-08-26T01:49:19.465Z,24.51
2022-08-26T01:50:27.647Z,24.47
2022-08-26T01:51:19.442Z,24.48
2022-08-26T01:52:19.427Z,24.56
2022-08-26T01:53:19.422Z,24.51
2022-08-26T01:54:20.579Z,24.60
2022-08-26T01:55:33.039Z,24.59
2022-08-26T01:56:19.384Z,24.53
2022-08-26T01:57:19.374Z,24.65
2022-08-26T01:58:19.361Z,24.62
2022-08-26T01:59:19.345Z,24.65
2022-08-26T02:00:19.339Z,24.65
2022-08-26T02:01:19.397Z,24.62
2022-08-26T02:02:19.310Z,24.51
2022-08-26T02:03:19.300Z,24.47
2022-08-26T02:04:19.333Z,24.48
2022-08-26T02:05:19.278Z,24.51
2022-08-26T02:06:19.265Z,24.47
2022-08-26T02:07:19.256Z,24.52
2022-08-26T02:08:24.692Z,24.44
2022-08-26T02:09:19.224Z,24.45
2022-08-26T02:10:19.721Z,24.56
2022-08-26T02:11:19.200Z,24.51
2022-08-26T02:12:19.190Z,24.52
2022-08-26T02:13:19.182Z,24.53
2022-08-26T02:14:19.164Z,24.62
2022-08-26T02:15:19.156Z,24.62
2022-08-26T02:16:19.175Z,24.58
2022-08-26T02:17:19.134Z,24.51
2022-08-26T02:18:19.119Z,24.58
2022-08-26T02:19:19.105Z,24.51
2022-08-26T02:20:19.098Z,24.55
2022-08-26T02:21:19.082Z,24.40
2022-08-26T02:22:19.066Z,24.26
2022-08-26T02:23:19.057Z,24.10
2022-08-26T02:24:19.048Z,23.96
2022-08-26T02:25:19.034Z,23.98
2022-08-26T02:26:19.374Z,24.00
2022-08-26T02:27:19.006Z,23.98
2022-08-26T02:28:19.833Z,24.00
2022-08-26T02:29:18.983Z,24.00
2022-08-26T02:30:19.026Z,23.98
2022-08-26T02:31:18.966Z,24.00
2022-08-26T02:32:18.947Z,24.04
2022-08-26T02:33:18.939Z,24.04
2022-08-26T02:34:18.925Z,24.13
2022-08-26T02:35:20.305Z,24.07
2022-08-26T02:36:18.904Z,24.13
2022-08-26T02:37:18.887Z,24.08
2022-08-26T02:38:18.877Z,24.11
2022-08-26T02:39:22.313Z,24.10
2022-08-26T02:40:18.909Z,24.16
2022-08-26T02:41:18.841Z,24.13
2022-08-26T02:42:18.828Z,24.22
2022-08-26T02:43:18.821Z,24.28
2022-08-26T02:44:18.804Z,24.18
2022-08-26T02:45:23.273Z,24.03
2022-08-26T02:46:21.563Z,24.03
2022-08-26T02:47:18.762Z,24.03
2022-08-26T02:48:18.964Z,24.00
2022-08-26T02:49:18.741Z,24.00
2022-08-26T02:50:18.730Z,24.00
2022-08-26T02:51:18.717Z,24.11
2022-08-26T02:52:18.703Z,24.06
2022-08-26T02:53:24.510Z,24.10
2022-08-26T02:54:18.679Z,24.08
2022-08-26T02:55:18.666Z,24.13
2022-08-26T02:56:18.658Z,24.13
2022-08-26T02:57:18.648Z,24.11
2022-08-26T02:58:18.629Z,24.19
2022-08-26T02:59:18.615Z,24.15
2022-08-26T03:00:18.607Z,24.21
2022-08-26T03:01:18.648Z,24.16
2022-08-26T03:02:18.612Z,24.03
2022-08-26T03:03:18.570Z,24.01
2022-08-26T03:04:18.561Z,24.07
2022-08-26T03:05:18.545Z,24.01
2022-08-26T03:06:18.534Z,24.16
2022-08-26T03:07:18.518Z,24.15
2022-08-26T03:08:18.509Z,24.15
2022-08-26T03:09:18.911Z,24.10
2022-08-26T03:10:18.485Z,24.03
2022-08-26T03:11:18.471Z,24.13
2022-08-26T03:12:18.462Z,24.01
2022-08-26T03:13:18.446Z,23.91
2022-08-26T03:14:18.435Z,23.85
2022-08-26T03:15:18.594Z,23.89
2022-08-26T03:16:18.553Z,23.85
2022-08-26T03:17:18.398Z,23.84
2022-08-26T03:18:18.382Z,23.84
2022-08-26T03:19:18.370Z,23.82
2022-08-26T03:20:18.364Z,23.79
2022-08-26T03:21:18.358Z,23.88
2022-08-26T03:22:18.333Z,23.85
2022-08-26T03:23:18.549Z,23.86
2022-08-26T03:24:18.309Z,23.82
2022-08-26T03:25:18.301Z,23.85
2022-08-26T03:26:18.285Z,23.86
2022-08-26T03:27:18.272Z,23.89
2022-08-26T03:28:18.259Z,23.89
2022-08-26T03:29:18.244Z,23.88
2022-08-26T03:30:18.234Z,23.94
2022-08-26T03:31:18.286Z,23.98
2022-08-26T03:32:18.213Z,23.96
2022-08-26T03:33:18.198Z,23.96
2022-08-26T03:34:18.200Z,23.91
2022-08-26T03:35:18.173Z,23.86
2022-08-26T03:36:18.164Z,23.94
2022-08-26T03:37:18.148Z,23.94
2022-08-26T03:38:18.139Z,23.96
2022-08-26T03:39:18.119Z,23.97
2022-08-26T03:40:20.366Z,23.96
2022-08-26T03:41:18.096Z,23.92
2022-08-26T03:42:18.084Z,23.91
2022-08-26T03:43:18.074Z,23.88
2022-08-26T03:44:18.064Z,23.85
2022-08-26T03:45:18.048Z,23.89
2022-08-26T03:46:18.105Z,23.86
2022-08-26T03:47:18.023Z,23.81
2022-08-26T03:48:18.012Z,23.85
2022-08-26T03:49:17.995Z,23.74
2022-08-26T03:50:17.987Z,23.82
2022-08-26T03:51:18.215Z,23.78
2022-08-26T03:52:17.958Z,23.81
2022-08-26T03:53:17.952Z,23.84
2022-08-26T03:54:17.935Z,23.88
2022-08-26T03:55:17.922Z,23.79
2022-08-26T03:56:17.914Z,23.79
2022-08-26T03:57:17.898Z,23.84
2022-08-26T03:58:17.892Z,23.84
2022-08-26T03:59:17.872Z,23.79
2022-08-26T04:00:18.476Z,23.81
2022-08-26T04:01:17.903Z,23.79
2022-08-26T04:02:17.839Z,23.71
2022-08-26T04:03:18.910Z,23.74
2022-08-26T04:04:17.828Z,23.71
2022-08-26T04:05:17.795Z,23.66
2022-08-26T04:06:17.785Z,23.61
2022-08-26T04:07:17.774Z,23.64
2022-08-26T04:08:17.760Z,23.67
2022-08-26T04:09:17.750Z,23.63
2022-08-26T04:10:20.402Z,23.66
2022-08-26T04:11:17.722Z,23.71
2022-08-26T04:12:17.719Z,23.71
2022-08-26T04:13:17.696Z,23.71
2022-08-26T04:14:20.119Z,23.63
2022-08-26T04:15:17.830Z,23.67
2022-08-26T04:16:17.690Z,23.70
2022-08-26T04:17:17.645Z,23.70
2022-08-26T04:18:17.635Z,23.64
2022-08-26T04:19:17.622Z,23.61
2022-08-26T04:20:17.607Z,23.64
2022-08-26T04:21:17.597Z,23.61
2022-08-26T04:22:18.380Z,23.55
2022-08-26T04:23:17.571Z,23.56
2022-08-26T04:24:17.785Z,23.60
2022-08-26T04:25:17.544Z,23.59
2022-08-26T04:26:17.542Z,23.54
2022-08-26T04:27:17.523Z,23.56
2022-08-26T04:28:17.507Z,23.59
2022-08-26T04:29:17.499Z,23.60
2022-08-26T04:30:17.481Z,23.56
2022-08-26T04:31:17.561Z,23.60
2022-08-26T04:32:17.459Z,23.60
2022-08-26T04:33:17.444Z,23.59
2022-08-26T04:34:17.427Z,23.52
2022-08-26T04:35:17.460Z,23.52
2022-08-26T04:36:17.420Z,23.59
2022-08-26T04:37:17.392Z,23.60
2022-08-26T04:38:17.381Z,23.52
2022-08-26T04:39:17.367Z,23.54
2022-08-26T04:40:17.415Z,23.44
2022-08-26T04:41:17.348Z,23.45
2022-08-26T04:42:21.083Z,23.34
2022-08-26T04:43:17.316Z,23.36
2022-08-26T04:44:17.305Z,23.41
2022-08-26T04:45:17.293Z,23.36
2022-08-26T04:46:17.337Z,23.29
2022-08-26T04:47:17.264Z,23.34
2022-08-26T04:48:17.256Z,23.33
2022-08-26T04:49:17.242Z,23.34
2022-08-26T04:50:17.227Z,23.41
2022-08-26T04:51:17.212Z,23.34
2022-08-26T04:52:17.210Z,23.39
2022-08-26T04:53:17.188Z,23.39
2022-08-26T04:54:17.172Z,23.41
2022-08-26T04:55:17.163Z,23.46
2022-08-26T04:56:17.149Z,23.36
2022-08-26T04:57:17.134Z,23.36
2022-08-26T04:58:17.123Z,23.36
2022-08-26T04:59:18.151Z,23.26
2022-08-26T05:00:17.099Z,23.21
2022-08-26T05:01:17.122Z,23.25
2022-08-26T05:02:17.072Z,23.28
2022-08-26T05:03:17.063Z,23.18
2022-08-26T05:04:18.923Z,23.11
2022-08-26T05:05:17.032Z,23.18
2022-08-26T05:06:17.021Z,23.18
2022-08-26T05:07:17.690Z,23.13
2022-08-26T05:08:16.997Z,23.01
2022-08-26T05:09:16.982Z,23.03
2022-08-26T05:10:16.972Z,23.08
2022-08-26T05:11:16.963Z,22.98
2022-08-26T05:12:16.944Z,22.99
2022-08-26T05:13:16.939Z,23.03
2022-08-26T05:14:16.917Z,23.07
2022-08-26T05:15:16.909Z,22.99
2022-08-26T05:16:17.022Z,23.07
2022-08-26T05:17:16.883Z,23.07
2022-08-26T05:18:16.874Z,23.08
2022-08-26T05:19:17.225Z,23.04
2022-08-26T05:20:16.847Z,23.13
2022-08-26T05:21:16.828Z,23.15
2022-08-26T05:22:16.811Z,23.22
2022-08-26T05:23:16.800Z,23.23
2022-08-26T05:24:16.792Z,23.22
2022-08-26T05:25:16.774Z,23.18
2022-08-26T05:26:16.762Z,23.21
2022-08-26T05:27:16.749Z,23.21
2022-08-26T05:28:16.741Z,23.23
2022-08-26T05:29:16.929Z,23.25
2022-08-26T05:30:16.716Z,23.33
2022-08-26T05:31:16.723Z,23.34
2022-08-26T05:32:16.687Z,23.37
2022-08-26T05:33:16.675Z,23.36
2022-08-26T05:34:16.662Z,23.36
2022-08-26T05:35:16.647Z,23.37
2022-08-26T05:36:16.637Z,23.37
2022-08-26T05:37:16.624Z,23.36
2022-08-26T05:38:16.608Z,23.36
2022-08-26T05:39:16.595Z,23.44
2022-08-26T05:40:16.605Z,23.37
2022-08-26T05:41:16.676Z,23.26
2022-08-26T05:42:16.560Z,23.29
2022-08-26T05:43:16.543Z,23.26
2022-08-26T05:44:16.535Z,23.22
2022-08-26T05:45:16.524Z,23.23
2022-08-26T05:46:16.555Z,23.17
2022-08-26T05:47:16.496Z,23.13
2022-08-26T05:48:16.479Z,23.10
2022-08-26T05:49:16.468Z,23.10
2022-08-26T05:50:16.458Z,23.06
2022-08-26T05:51:16.444Z,23.23
2022-08-26T05:52:16.435Z,23.23
2022-08-26T05:53:17.429Z,23.22
2022-08-26T05:54:21.931Z,23.23
2022-08-26T05:55:16.397Z,23.21
2022-08-26T05:56:16.383Z,23.13
2022-08-26T05:57:16.369Z,23.11
2022-08-26T05:58:17.442Z,23.15
2022-08-26T05:59:16.343Z,23.10
2022-08-26T06:00:16.333Z,23.08
2022-08-26T06:01:16.366Z,23.11
2022-08-26T06:02:16.306Z,23.13
2022-08-26T06:03:16.363Z,23.07
2022-08-26T06:04:16.284Z,23.06
2022-08-26T06:05:16.270Z,23.13
2022-08-26T06:06:16.255Z,23.08
2022-08-26T06:07:16.242Z,23.06
2022-08-26T06:08:16.230Z,23.10
2022-08-26T06:09:18.228Z,23.07
2022-08-26T06:10:31.429Z,23.10
2022-08-26T06:11:18.590Z,23.10
2022-08-26T06:12:16.185Z,23.17
2022-08-26T06:13:16.168Z,23.13
2022-08-26T06:14:16.157Z,23.15
2022-08-26T06:15:16.137Z,23.22
2022-08-26T06:16:16.216Z,23.14
2022-08-26T06:17:16.117Z,23.25
2022-08-26T06:18:16.106Z,23.22
2022-08-26T06:19:16.086Z,23.21
2022-08-26T06:20:16.079Z,23.07
2022-08-26T06:21:16.063Z,23.11
2022-08-26T06:22:18.459Z,23.15
2022-08-26T06:23:16.038Z,23.13
2022-08-26T06:24:16.025Z,23.14
2022-08-26T06:25:16.014Z,23.13
2022-08-26T06:26:16.006Z,23.10
2022-08-26T06:27:15.989Z,23.15
2022-08-26T06:28:15.974Z,23.13
2022-08-26T06:29:24.519Z,23.22
2022-08-26T06:30:15.961Z,23.21
2022-08-26T06:31:16.013Z,23.21
2022-08-26T06:32:15.926Z,23.23
2022-08-26T06:33:15.910Z,23.15
2022-08-26T06:34:15.900Z,23.22
2022-08-26T06:35:15.891Z,23.17
2022-08-26T06:36:15.876Z,23.11
2022-08-26T06:37:15.858Z,23.25
2022-08-26T06:38:15.848Z,23.28
2022-08-26T06:39:15.836Z,23.18
2022-08-26T06:40:15.886Z,23.22
2022-08-26T06:41:15.810Z,23.22
2022-08-26T06:42:15.799Z,23.21
2022-08-26T06:43:15.785Z,23.36
2022-08-26T06:44:15.772Z,23.26
2022-08-26T06:45:15.757Z,23.33
2022-08-26T06:46:15.795Z,23.36
2022-08-26T06:47:15.730Z,23.36
2022-08-26T06:48:15.729Z,23.39
2022-08-26T06:49:15.705Z,23.51
2022-08-26T06:50:15.695Z,23.45
2022-08-26T06:51:15.682Z,23.46
2022-08-26T06:52:19.942Z,23.39
2022-08-26T06:53:15.654Z,23.42
2022-08-26T06:54:15.641Z,23.42
2022-08-26T06:55:15.629Z,23.48
2022-08-26T06:56:15.618Z,23.49
2022-08-26T06:57:16.823Z,23.55
2022-08-26T06:58:15.594Z,23.59
2022-08-26T06:59:15.577Z,23.54
2022-08-26T07:00:15.576Z,23.60
2022-08-26T07:01:15.574Z,23.55
2022-08-26T07:02:15.634Z,23.55
2022-08-26T07:03:15.605Z,23.59
2022-08-26T07:04:15.925Z,23.56
2022-08-26T07:05:15.504Z,23.61
2022-08-26T07:06:15.494Z,23.55
2022-08-26T07:07:15.482Z,23.63
2022-08-26T07:08:15.468Z,23.55
2022-08-26T07:09:15.452Z,23.55
2022-08-26T07:10:15.442Z,23.66
2022-08-26T07:11:15.428Z,23.63
2022-08-26T07:12:15.413Z,23.74
2022-08-26T07:13:15.400Z,23.67
2022-08-26T07:14:15.387Z,23.63
2022-08-26T07:15:15.378Z,23.70
2022-08-26T07:16:15.414Z,23.67
2022-08-26T07:17:15.349Z,23.71
2022-08-26T07:18:15.334Z,23.79
2022-08-26T07:19:15.324Z,23.79
2022-08-26T07:20:15.318Z,23.64
2022-08-26T07:21:15.303Z,23.64
2022-08-26T07:22:15.289Z,23.63
2022-08-26T07:23:15.276Z,23.69
2022-08-26T07:24:15.264Z,23.74
2022-08-26T07:25:15.253Z,23.81
2022-08-26T07:26:15.241Z,23.85
2022-08-26T07:27:15.225Z,23.81
2022-08-26T07:28:15.212Z,23.89
2022-08-26T07:29:15.199Z,23.84
2022-08-26T07:30:15.188Z,23.91
2022-08-26T07:31:15.236Z,24.00
2022-08-26T07:32:15.168Z,24.00
2022-08-26T07:33:15.153Z,24.01
2022-08-26T07:34:15.141Z,24.07
2022-08-26T07:35:15.125Z,24.03
2022-08-26T07:36:15.121Z,24.10
2022-08-26T07:37:15.103Z,24.19
2022-08-26T07:38:15.090Z,24.21
2022-08-26T07:39:15.079Z,24.19
2022-08-26T07:40:15.091Z,24.33
2022-08-26T07:41:15.053Z,24.29
2022-08-26T07:42:15.050Z,24.29
2022-08-26T07:43:15.023Z,24.33
2022-08-26T07:44:15.016Z,24.31
2022-08-26T07:45:14.999Z,24.29
2022-08-26T07:46:16.541Z,24.29
2022-08-26T07:47:24.843Z,24.28
2022-08-26T07:48:14.968Z,24.33
2022-08-26T07:49:15.013Z,24.36
2022-08-26T07:50:14.939Z,24.43
2022-08-26T07:51:14.927Z,24.33
2022-08-26T07:52:14.919Z,24.37
2022-08-26T07:53:14.901Z,24.31
2022-08-26T07:54:14.889Z,24.41
2022-08-26T07:55:14.876Z,24.36
2022-08-26T07:56:14.867Z,24.41
2022-08-26T07:57:14.852Z,24.44
2022-08-26T07:58:14.841Z,24.43
2022-08-26T07:59:14.960Z,24.51
2022-08-26T08:00:14.815Z,24.53
2022-08-26T08:01:14.874Z,24.53
2022-08-26T08:02:14.793Z,24.56
2022-08-26T08:03:14.778Z,24.68
2022-08-26T08:04:14.767Z,24.60
2022-08-26T08:05:14.784Z,24.63
2022-08-26T08:06:14.746Z,24.66
2022-08-26T08:07:14.731Z,24.70
2022-08-26T08:08:27.572Z,24.76
2022-08-26T08:09:14.710Z,24.68
2022-08-26T08:10:14.696Z,24.79
2022-08-26T08:11:14.686Z,24.79
2022-08-26T08:12:14.674Z,24.76
2022-08-26T08:13:14.662Z,24.78
2022-08-26T08:14:14.651Z,24.79
2022-08-26T08:15:14.638Z,24.89
2022-08-26T08:16:14.626Z,24.96
2022-08-26T08:17:14.615Z,24.91
2022-08-26T08:18:15.497Z,24.91
2022-08-26T08:19:14.583Z,24.90
2022-08-26T08:20:14.585Z,24.86
2022-08-26T08:21:21.875Z,24.91
2022-08-26T08:22:17.857Z,24.91
2022-08-26T08:23:14.536Z,24.94
2022-08-26T08:24:14.530Z,24.76
2022-08-26T08:25:14.518Z,24.82
2022-08-26T08:26:14.505Z,24.79
2022-08-26T08:27:14.489Z,24.81
2022-08-26T08:28:14.478Z,24.84
2022-08-26T08:29:14.477Z,24.85
2022-08-26T08:30:14.456Z,24.82
2022-08-26T08:31:14.519Z,24.75
2022-08-26T08:32:15.461Z,24.93
2022-08-26T08:33:14.419Z,25.03
2022-08-26T08:34:14.405Z,25.01
2022-08-26T08:35:14.399Z,25.00
2022-08-26T08:36:14.385Z,25.01
2022-08-26T08:37:14.373Z,25.09
2022-08-26T08:38:14.357Z,25.16
2022-08-26T08:39:14.362Z,25.16
2022-08-26T08:40:14.358Z,25.08
2022-08-26T08:41:14.348Z,25.09
2022-08-26T08:42:14.311Z,25.03
2022-08-26T08:43:14.301Z,25.06
2022-08-26T08:44:14.338Z,25.04
2022-08-26T08:45:14.274Z,25.00
2022-08-26T08:46:14.339Z,25.01
2022-08-26T08:47:14.255Z,24.99
2022-08-26T08:48:14.268Z,24.93
2022-08-26T08:49:14.259Z,24.97
2022-08-26T08:50:14.215Z,24.91
2022-08-26T08:51:14.209Z,24.79
2022-08-26T08:52:14.196Z,24.91
2022-08-26T08:53:14.338Z,24.93
2022-08-26T08:54:14.172Z,24.91
2022-08-26T08:55:17.756Z,24.99
2022-08-26T08:56:14.150Z,25.09
2022-08-26T08:57:14.151Z,25.09
2022-08-26T08:58:14.131Z,25.12
2022-08-26T08:59:14.115Z,25.15
2022-08-26T09:00:14.104Z,25.16
2022-08-26T09:01:14.179Z,25.18
2022-08-26T09:02:14.147Z,25.16
2022-08-26T09:03:14.068Z,25.19
2022-08-26T09:04:14.056Z,25.22
2022-08-26T09:05:15.129Z,25.23
2022-08-26T09:06:14.035Z,25.23
2022-08-26T09:07:14.018Z,25.28
2022-08-26T09:08:14.009Z,25.23
2022-08-26T09:09:13.999Z,25.18
2022-08-26T09:10:13.986Z,25.21
2022-08-26T09:11:13.973Z,25.21
2022-08-26T09:12:13.969Z,25.18
2022-08-26T09:13:17.051Z,25.18
2022-08-26T09:14:13.940Z,25.23
2022-08-26T09:15:13.926Z,25.21
2022-08-26T09:16:13.917Z,25.22
2022-08-26T09:17:13.905Z,25.08
2022-08-26T09:18:13.893Z,25.04
2022-08-26T09:19:13.877Z,25.04
2022-08-26T09:20:13.873Z,24.91
2022-08-26T09:21:13.861Z,24.91
2022-08-26T09:22:13.906Z,24.84
2022-08-26T09:23:13.835Z,24.96
2022-08-26T09:24:14.147Z,24.94
2022-08-26T09:25:13.809Z,24.90
2022-08-26T09:26:13.794Z,24.99
2022-08-26T09:27:13.787Z,24.94
2022-08-26T09:28:13.779Z,25.01
2022-08-26T09:29:13.804Z,25.09
2022-08-26T09:30:13.752Z,25.06
2022-08-26T09:31:13.840Z,25.22
2022-08-26T09:32:13.726Z,25.12
2022-08-26T09:33:13.886Z,25.16
2022-08-26T09:34:17.279Z,25.09
2022-08-26T09:35:13.688Z,25.12
2022-08-26T09:36:13.682Z,25.19
2022-08-26T09:37:13.669Z,25.15
2022-08-26T09:38:13.905Z,25.18
2022-08-26T09:39:13.652Z,25.19
2022-08-26T09:40:13.713Z,24.99
2022-08-26T09:41:13.624Z,25.00
2022-08-26T09:42:14.181Z,25.15
2022-08-26T09:43:13.594Z,25.11
2022-08-26T09:44:14.547Z,25.08
2022-08-26T09:45:13.572Z,25.18
2022-08-26T09:46:13.649Z,25.16
2022-08-26T09:47:13.547Z,25.18
2022-08-26T09:48:13.541Z,25.23
2022-08-26T09:49:13.525Z,25.19
2022-08-26T09:50:13.515Z,25.23
2022-08-26T09:51:13.506Z,25.16
2022-08-26T09:52:13.493Z,25.27
2022-08-26T09:53:13.480Z,25.18
2022-08-26T09:54:13.471Z,25.11
2022-08-26T09:55:13.458Z,25.18
2022-08-26T09:56:13.448Z,25.12
2022-08-26T09:57:13.444Z,25.19
2022-08-26T09:58:13.417Z,25.18
2022-08-26T09:59:13.412Z,25.21
2022-08-26T10:00:13.399Z,25.28
2022-08-26T10:01:13.404Z,25.23
2022-08-26T10:02:13.375Z,25.36
2022-08-26T10:03:15.691Z,25.31
2022-08-26T10:04:13.453Z,25.19
2022-08-26T10:05:13.345Z,25.27
2022-08-26T10:06:13.332Z,25.26
2022-08-26T10:07:13.316Z,25.23
2022-08-26T10:08:13.301Z,25.33
2022-08-26T10:09:13.291Z,25.28
2022-08-26T10:10:13.284Z,25.33
2022-08-26T10:11:13.269Z,25.46
2022-08-26T10:12:13.256Z,25.48
2022-08-26T10:13:13.245Z,25.48
2022-08-26T10:14:13.234Z,25.46
2022-08-26T10:15:13.221Z,25.46
2022-08-26T10:16:13.217Z,25.43
2022-08-26T10:17:13.200Z,25.45
2022-08-26T10:18:13.186Z,25.49
2022-08-26T10:19:13.219Z,25.52
2022-08-26T10:20:22.411Z,25.46
2022-08-26T10:21:13.155Z,25.53
2022-08-26T10:22:13.143Z,25.45
2022-08-26T10:23:14.085Z,25.56
2022-08-26T10:24:13.121Z,25.67
2022-08-26T10:25:13.115Z,25.73
2022-08-26T10:26:13.096Z,25.68
2022-08-26T10:27:13.086Z,25.82
2022-08-26T10:28:13.077Z,25.86
2022-08-26T10:29:13.084Z,25.95
2022-08-26T10:30:13.053Z,26.04
2022-08-26T10:31:13.036Z,26.08
2022-08-26T10:32:13.841Z,26.01
2022-08-26T10:33:13.017Z,26.05
2022-08-26T10:34:13.954Z,26.12
2022-08-26T10:35:12.996Z,26.23
2022-08-26T10:36:15.200Z,26.30
2022-08-26T10:37:14.209Z,26.19
2022-08-26T10:38:12.972Z,26.36
2022-08-26T10:39:12.952Z,26.31
2022-08-26T10:40:13.019Z,26.38
2022-08-26T10:41:13.115Z,26.36
2022-08-26T10:42:12.913Z,26.41
2022-08-26T10:43:12.908Z,26.36
2022-08-26T10:44:12.893Z,26.42
2022-08-26T10:45:15.142Z,26.51
2022-08-26T10:46:12.947Z,26.36
2022-08-26T10:47:12.862Z,26.26
2022-08-26T10:48:12.846Z,26.36
2022-08-26T10:49:12.844Z,26.33
2022-08-26T10:50:12.907Z,26.38
2022-08-26T10:51:12.820Z,26.34
2022-08-26T10:52:16.583Z,26.38
2022-08-26T10:53:12.795Z,26.36
2022-08-26T10:54:12.781Z,26.41
2022-08-26T10:55:12.775Z,26.51
2022-08-26T10:56:18.678Z,26.45
2022-08-26T10:57:12.751Z,26.30
2022-08-26T10:58:12.930Z,26.30
2022-08-26T10:59:12.760Z,26.19
2022-08-26T11:00:12.724Z,26.24
2022-08-26T11:01:12.760Z,26.23
2022-08-26T11:02:12.697Z,26.21
2022-08-26T11:03:22.529Z,26.21
2022-08-26T11:04:12.766Z,26.16
2022-08-26T11:05:12.661Z,26.26
2022-08-26T11:06:12.657Z,26.20
2022-08-26T11:07:12.647Z,26.20
2022-08-26T11:08:12.626Z,26.07
2022-08-26T11:09:12.618Z,26.27
2022-08-26T11:10:12.607Z,26.21
2022-08-26T11:11:12.595Z,26.28
2022-08-26T11:12:12.586Z,26.16
2022-08-26T11:13:12.578Z,26.26
2022-08-26T11:14:12.562Z,26.21
2022-08-26T11:15:12.554Z,26.20
2022-08-26T11:16:12.596Z,26.28
2022-08-26T11:17:12.532Z,26.34
2022-08-26T11:18:12.528Z,26.51
2022-08-26T11:19:12.510Z,26.58
2022-08-26T11:20:13.619Z,26.67
2022-08-26T11:21:12.490Z,26.85
2022-08-26T11:22:12.483Z,26.86
2022-08-26T11:23:12.470Z,27.01
2022-08-26T11:24:12.456Z,27.15
2022-08-26T11:25:12.443Z,27.26
2022-08-26T11:26:12.436Z,27.30
2022-08-26T11:27:12.422Z,27.42
2022-08-26T11:28:12.414Z,27.52
2022-08-26T11:29:13.631Z,27.42
2022-08-26T11:30:12.387Z,27.42
2022-08-26T11:31:12.438Z,27.40
2022-08-26T11:32:12.370Z,27.47
2022-08-26T11:33:12.364Z,27.58
2022-08-26T11:34:12.353Z,27.47
2022-08-26T11:35:12.341Z,27.41
2022-08-26T11:36:12.599Z,27.38
2022-08-26T11:37:12.339Z,27.35
2022-08-26T11:38:12.308Z,27.35
2022-08-26T11:39:12.299Z,27.30
2022-08-26T11:40:12.361Z,27.23
2022-08-26T11:41:12.286Z,27.22
2022-08-26T11:42:12.268Z,27.22
2022-08-26T11:43:12.258Z,27.20
2022-08-26T11:44:12.249Z,27.22
2022-08-26T11:45:12.240Z,27.32
2022-08-26T11:46:12.326Z,27.35
2022-08-26T11:47:12.215Z,27.20
2022-08-26T11:48:12.207Z,27.15
2022-08-26T11:49:12.195Z,27.15
2022-08-26T11:50:12.205Z,27.20
2022-08-26T11:51:12.176Z,27.27
2022-08-26T11:52:12.166Z,27.17
2022-08-26T11:53:12.152Z,27.20
2022-08-26T11:54:12.141Z,27.20
2022-08-26T11:55:12.133Z,27.30
2022-08-26T11:56:12.124Z,27.30
2022-08-26T11:57:12.123Z,27.22
2022-08-26T11:58:12.106Z,27.26
2022-08-26T11:59:12.088Z,27.16
2022-08-26T12:00:14.257Z,27.26
2022-08-26T12:01:12.070Z,27.22
2022-08-26T12:02:12.057Z,27.27
2022-08-26T12:03:12.357Z,27.19
2022-08-26T12:04:12.204Z,27.25
2022-08-26T12:05:12.029Z,27.23
2022-08-26T12:06:12.021Z,27.30
2022-08-26T12:07:12.008Z,27.38
2022-08-26T12:08:11.991Z,27.22
2022-08-26T12:09:11.985Z,27.30
2022-08-26T12:10:11.975Z,27.42
2022-08-26T12:11:11.967Z,27.32
2022-08-26T12:12:12.149Z,27.52
2022-08-26T12:13:11.948Z,27.66
2022-08-26T12:14:11.941Z,27.82
2022-08-26T12:15:11.923Z,28.09
2022-08-26T12:16:11.940Z,28.22
2022-08-26T12:17:11.904Z,28.31
2022-08-26T12:18:11.896Z,28.32
2022-08-26T12:19:11.883Z,28.42
2022-08-26T12:20:11.873Z,28.42
2022-08-26T12:21:11.861Z,28.37
2022-08-26T12:22:11.854Z,28.43
2022-08-26T12:23:11.844Z,28.28
2022-08-26T12:24:11.836Z,28.30
2022-08-26T12:25:11.829Z,28.22
2022-08-26T12:26:11.820Z,28.17
2022-08-26T12:27:11.802Z,28.06
2022-08-26T12:28:11.799Z,28.05
2022-08-26T12:29:19.770Z,28.15
2022-08-26T12:30:12.357Z,28.19
2022-08-26T12:31:11.795Z,28.22
2022-08-26T12:32:11.754Z,28.16
2022-08-26T12:33:22.250Z,28.16
2022-08-26T12:34:18.007Z,28.22
2022-08-26T12:35:11.731Z,28.20
2022-08-26T12:36:11.713Z,28.07
2022-08-26T12:37:11.707Z,28.16
2022-08-26T12:38:11.696Z,28.06
2022-08-26T12:39:11.687Z,28.10
2022-08-26T12:40:11.985Z,28.00
2022-08-26T12:41:11.668Z,28.09
2022-08-26T12:42:11.665Z,28.12
2022-08-26T12:43:11.645Z,28.09
2022-08-26T12:44:11.636Z,28.03
2022-08-26T12:45:11.628Z,28.06
2022-08-26T12:46:11.619Z,28.07
2022-08-26T12:47:11.607Z,28.05
2022-08-26T12:48:11.594Z,28.12
2022-08-26T12:49:11.585Z,28.25
2022-08-26T12:50:11.575Z,28.31
2022-08-26T12:51:11.569Z,28.35
2022-08-26T12:52:11.562Z,28.37